sensor_id;sensor_type;location;lat;lon;timestamp;P1;durP1;ratioP1;P2;durP2;ratioP2
71626;SDS011;59475;52.464;13.590;2023-08-06T00:00:46;7.70;;;6.20;;
71626;SDS011;59475;52.464;13.590;2023-08-06T00:03:11;7.00;;;6.07;;
71626;SDS011;59475;52.464;13.590;2023-08-06T00:05:37;7.87;;;6.07;;
71626;SDS011;59475;52.464;13.590;2023-08-06T00:08:02;9.10;;;6.20;;
71626;SDS011;59475;52.464;13.590;2023-08-06T00:10:27;7.83;;;6.77;;
71626;SDS011;59475;52.464;13.590;2023-08-06T00:12:53;7.40;;;6.70;;
71626;SDS011;59475;52.464;13.590;2023-08-06T00:15:18;8.67;;;7.10;;
71626;SDS011;59475;52.464;13.590;2023-08-06T00:17:44;7.30;;;6.60;;
71626;SDS011;59475;52.464;13.590;2023-08-06T00:20:09;8.23;;;6.10;;
71626;SDS011;59475;52.464;13.590;2023-08-06T00:22:36;10.03;;;6.80;;
71626;SDS011;59475;52.464;13.590;2023-08-06T00:25:02;10.75;;;6.50;;
71626;SDS011;59475;52.464;13.590;2023-08-06T00:27:29;7.57;;;6.55;;
71626;SDS011;59475;52.464;13.590;2023-08-06T00:29:55;9.03;;;6.90;;
71626;SDS011;59475;52.464;13.590;2023-08-06T00:32:20;7.53;;;6.53;;
71626;SDS011;59475;52.464;13.590;2023-08-06T00:34:46;6.80;;;6.07;;
71626;SDS011;59475;52.464;13.590;2023-08-06T00:37:11;8.30;;;6.50;;
71626;SDS011;59475;52.464;13.590;2023-08-06T00:39:37;7.60;;;6.90;;
71626;SDS011;59475;52.464;13.590;2023-08-06T00:42:02;8.73;;;6.93;;
71626;SDS011;59475;52.464;13.590;2023-08-06T00:44:28;9.07;;;6.83;;
71626;SDS011;59475;52.464;13.590;2023-08-06T00:46:53;8.93;;;6.77;;
71626;SDS011;59475;52.464;13.590;2023-08-06T00:49:19;8.55;;;6.97;;
71626;SDS011;59475;52.464;13.590;2023-08-06T00:51:45;11.20;;;7.30;;
71626;SDS011;59475;52.464;13.590;2023-08-06T00:54:11;8.35;;;6.40;;
71626;SDS011;59475;52.464;13.590;2023-08-06T00:59:58;9.38;;;7.47;;
71626;SDS011;59475;52.464;13.590;2023-08-06T01:02:24;10.00;;;7.53;;
71626;SDS011;59475;52.464;13.590;2023-08-06T01:04:49;8.80;;;7.23;;
71626;SDS011;59475;52.464;13.590;2023-08-06T01:13:05;9.65;;;7.93;;
71626;SDS011;59475;52.464;13.590;2023-08-06T01:15:48;8.75;;;7.32;;
71626;SDS011;59475;52.464;13.590;2023-08-06T01:18:16;8.50;;;7.30;;
71626;SDS011;59475;52.464;13.590;2023-08-06T01:20:41;9.47;;;7.70;;
71626;SDS011;59475;52.464;13.590;2023-08-06T01:23:07;8.52;;;7.40;;
71626;SDS011;59475;52.464;13.590;2023-08-06T01:25:47;8.70;;;7.80;;
71626;SDS011;59475;52.464;13.590;2023-08-06T01:31:31;10.57;;;7.73;;
71626;SDS011;59475;52.464;13.590;2023-08-06T01:33:59;10.40;;;8.65;;
71626;SDS011;59475;52.464;13.590;2023-08-06T01:36:26;10.48;;;7.55;;
71626;SDS011;59475;52.464;13.590;2023-08-06T01:38:53;11.75;;;7.90;;
71626;SDS011;59475;52.464;13.590;2023-08-06T01:41:18;9.80;;;8.10;;
71626;SDS011;59475;52.464;13.590;2023-08-06T01:43:44;9.38;;;8.18;;
71626;SDS011;59475;52.464;13.590;2023-08-06T01:46:09;9.87;;;8.10;;
71626;SDS011;59475;52.464;13.590;2023-08-06T01:48:35;10.47;;;8.20;;
71626;SDS011;59475;52.464;13.590;2023-08-06T01:51:00;9.40;;;7.70;;
71626;SDS011;59475;52.464;13.590;2023-08-06T01:53:26;9.20;;;8.00;;
71626;SDS011;59475;52.464;13.590;2023-08-06T01:59:13;8.90;;;7.80;;
71626;SDS011;59475;52.464;13.590;2023-08-06T02:01:39;9.80;;;7.65;;
71626;SDS011;59475;52.464;13.590;2023-08-06T02:04:04;8.57;;;7.50;;
71626;SDS011;59475;52.464;13.590;2023-08-06T02:06:29;7.80;;;7.00;;
71626;SDS011;59475;52.464;13.590;2023-08-06T02:08:55;9.20;;;7.03;;
71626;SDS011;59475;52.464;13.590;2023-08-06T02:11:20;7.57;;;6.63;;
71626;SDS011;59475;52.464;13.590;2023-08-06T02:13:46;7.90;;;7.07;;
71626;SDS011;59475;52.464;13.590;2023-08-06T02:16:11;9.73;;;6.53;;
71626;SDS011;59475;52.464;13.590;2023-08-06T02:18:36;9.77;;;6.87;;
71626;SDS011;59475;52.464;13.590;2023-08-06T02:21:02;7.10;;;6.40;;
71626;SDS011;59475;52.464;13.590;2023-08-06T02:23:27;7.20;;;6.30;;
71626;SDS011;59475;52.464;13.590;2023-08-06T02:28:25;8.27;;;6.25;;
71626;SDS011;59475;52.464;13.590;2023-08-06T02:30:50;6.87;;;6.10;;
71626;SDS011;59475;52.464;13.590;2023-08-06T02:33:16;6.47;;;5.32;;
71626;SDS011;59475;52.464;13.590;2023-08-06T02:35:42;7.03;;;5.40;;
71626;SDS011;59475;52.464;13.590;2023-08-06T02:38:07;6.37;;;5.23;;
71626;SDS011;59475;52.464;13.590;2023-08-06T02:40:32;7.70;;;5.70;;
71626;SDS011;59475;52.464;13.590;2023-08-06T02:42:58;6.77;;;5.20;;
71626;SDS011;59475;52.464;13.590;2023-08-06T02:45:23;6.00;;;5.43;;
71626;SDS011;59475;52.464;13.590;2023-08-06T02:47:48;7.77;;;5.07;;
71626;SDS011;59475;52.464;13.590;2023-08-06T02:50:14;6.67;;;5.57;;
71626;SDS011;59475;52.464;13.590;2023-08-06T02:52:39;6.30;;;5.23;;
71626;SDS011;59475;52.464;13.590;2023-08-06T02:55:05;6.20;;;5.30;;
71626;SDS011;59475;52.464;13.590;2023-08-06T02:57:31;5.97;;;4.80;;
71626;SDS011;59475;52.464;13.590;2023-08-06T02:59:57;6.37;;;4.83;;
71626;SDS011;59475;52.464;13.590;2023-08-06T03:02:22;6.38;;;5.10;;
71626;SDS011;59475;52.464;13.590;2023-08-06T03:04:47;5.97;;;5.13;;
71626;SDS011;59475;52.464;13.590;2023-08-06T03:07:13;5.87;;;4.80;;
71626;SDS011;59475;52.464;13.590;2023-08-06T03:09:38;6.70;;;4.93;;
71626;SDS011;59475;52.464;13.590;2023-08-06T03:12:04;7.83;;;5.17;;
71626;SDS011;59475;52.464;13.590;2023-08-06T03:14:29;8.70;;;5.55;;
71626;SDS011;59475;52.464;13.590;2023-08-06T03:20:16;6.40;;;4.50;;
71626;SDS011;59475;52.464;13.590;2023-08-06T03:22:42;5.73;;;5.23;;
71626;SDS011;59475;52.464;13.590;2023-08-06T03:25:07;7.17;;;5.07;;
71626;SDS011;59475;52.464;13.590;2023-08-06T03:27:33;5.65;;;4.95;;
71626;SDS011;59475;52.464;13.590;2023-08-06T03:29:58;5.27;;;4.67;;
71626;SDS011;59475;52.464;13.590;2023-08-06T03:32:25;6.95;;;4.80;;
71626;SDS011;59475;52.464;13.590;2023-08-06T03:34:50;5.37;;;4.40;;
71626;SDS011;59475;52.464;13.590;2023-08-06T03:37:16;4.90;;;4.40;;
71626;SDS011;59475;52.464;13.590;2023-08-06T03:39:41;5.40;;;4.87;;
71626;SDS011;59475;52.464;13.590;2023-08-06T03:42:06;5.27;;;4.77;;
71626;SDS011;59475;52.464;13.590;2023-08-06T03:44:32;7.83;;;5.40;;
71626;SDS011;59475;52.464;13.590;2023-08-06T03:46:57;6.53;;;5.17;;
71626;SDS011;59475;52.464;13.590;2023-08-06T03:49:23;5.23;;;4.70;;
71626;SDS011;59475;52.464;13.590;2023-08-06T03:51:48;6.17;;;4.87;;
71626;SDS011;59475;52.464;13.590;2023-08-06T03:54:13;5.00;;;4.13;;
71626;SDS011;59475;52.464;13.590;2023-08-06T03:56:39;6.97;;;4.43;;
71626;SDS011;59475;52.464;13.590;2023-08-06T03:59:04;5.17;;;4.73;;
71626;SDS011;59475;52.464;13.590;2023-08-06T04:01:29;5.30;;;4.70;;
71626;SDS011;59475;52.464;13.590;2023-08-06T04:03:55;5.70;;;4.90;;
71626;SDS011;59475;52.464;13.590;2023-08-06T04:06:20;5.53;;;4.93;;
71626;SDS011;59475;52.464;13.590;2023-08-06T04:08:45;5.73;;;4.70;;
71626;SDS011;59475;52.464;13.590;2023-08-06T04:14:33;6.77;;;5.00;;
71626;SDS011;59475;52.464;13.590;2023-08-06T04:16:58;7.07;;;4.47;;
71626;SDS011;59475;52.464;13.590;2023-08-06T04:19:23;6.80;;;4.87;;
71626;SDS011;59475;52.464;13.590;2023-08-06T04:21:49;5.57;;;4.60;;
71626;SDS011;59475;52.464;13.590;2023-08-06T04:24:14;7.03;;;4.97;;
71626;SDS011;59475;52.464;13.590;2023-08-06T04:26:39;5.77;;;4.97;;
71626;SDS011;59475;52.464;13.590;2023-08-06T04:29:05;6.23;;;4.80;;
71626;SDS011;59475;52.464;13.590;2023-08-06T04:31:30;4.95;;;4.53;;
71626;SDS011;59475;52.464;13.590;2023-08-06T04:33:55;7.80;;;5.20;;
71626;SDS011;59475;52.464;13.590;2023-08-06T04:36:21;6.50;;;4.77;;
71626;SDS011;59475;52.464;13.590;2023-08-06T04:38:46;7.40;;;4.90;;
71626;SDS011;59475;52.464;13.590;2023-08-06T04:41:12;5.57;;;4.75;;
71626;SDS011;59475;52.464;13.590;2023-08-06T04:43:37;6.57;;;5.40;;
71626;SDS011;59475;52.464;13.590;2023-08-06T04:46:03;8.00;;;5.50;;
71626;SDS011;59475;52.464;13.590;2023-08-06T04:48:28;7.15;;;5.38;;
71626;SDS011;59475;52.464;13.590;2023-08-06T04:50:53;6.67;;;4.97;;
71626;SDS011;59475;52.464;13.590;2023-08-06T04:53:19;8.07;;;5.43;;
71626;SDS011;59475;52.464;13.590;2023-08-06T04:59:06;7.50;;;5.60;;
71626;SDS011;59475;52.464;13.590;2023-08-06T05:01:32;7.07;;;5.28;;
71626;SDS011;59475;52.464;13.590;2023-08-06T05:03:57;6.07;;;5.20;;
71626;SDS011;59475;52.464;13.590;2023-08-06T05:06:22;6.07;;;5.47;;
71626;SDS011;59475;52.464;13.590;2023-08-06T05:08:48;5.93;;;5.30;;
71626;SDS011;59475;52.464;13.590;2023-08-06T05:11:13;7.07;;;5.47;;
71626;SDS011;59475;52.464;13.590;2023-08-06T05:13:38;5.77;;;5.17;;
71626;SDS011;59475;52.464;13.590;2023-08-06T05:16:04;6.63;;;5.05;;
71626;SDS011;59475;52.464;13.590;2023-08-06T05:18:29;5.60;;;5.00;;
71626;SDS011;59475;52.464;13.590;2023-08-06T05:20:55;5.60;;;5.00;;
71626;SDS011;59475;52.464;13.590;2023-08-06T05:23:21;6.07;;;4.47;;
71626;SDS011;59475;52.464;13.590;2023-08-06T05:25:46;6.17;;;5.57;;
71626;SDS011;59475;52.464;13.590;2023-08-06T05:28:12;5.70;;;4.88;;
71626;SDS011;59475;52.464;13.590;2023-08-06T05:30:40;8.03;;;5.83;;
71626;SDS011;59475;52.464;13.590;2023-08-06T05:33:06;6.97;;;5.78;;
71626;SDS011;59475;52.464;13.590;2023-08-06T05:35:31;5.97;;;5.20;;
71626;SDS011;59475;52.464;13.590;2023-08-06T05:37:57;7.27;;;5.83;;
71626;SDS011;59475;52.464;13.590;2023-08-06T05:40:22;9.27;;;5.80;;
71626;SDS011;59475;52.464;13.590;2023-08-06T05:42:49;6.30;;;5.70;;
71626;SDS011;59475;52.464;13.590;2023-08-06T05:45:14;8.10;;;5.80;;
71626;SDS011;59475;52.464;13.590;2023-08-06T05:47:40;6.97;;;5.57;;
71626;SDS011;59475;52.464;13.590;2023-08-06T05:50:06;7.80;;;5.67;;
71626;SDS011;59475;52.464;13.590;2023-08-06T05:52:32;8.55;;;5.68;;
71626;SDS011;59475;52.464;13.590;2023-08-06T05:54:57;6.47;;;5.77;;
71626;SDS011;59475;52.464;13.590;2023-08-06T05:57:23;6.90;;;5.60;;
71626;SDS011;59475;52.464;13.590;2023-08-06T05:59:48;6.83;;;5.87;;
71626;SDS011;59475;52.464;13.590;2023-08-06T06:02:13;7.60;;;6.17;;
71626;SDS011;59475;52.464;13.590;2023-08-06T06:04:40;6.10;;;5.50;;
71626;SDS011;59475;52.464;13.590;2023-08-06T06:07:05;6.22;;;5.63;;
71626;SDS011;59475;52.464;13.590;2023-08-06T06:09:31;7.70;;;6.20;;
71626;SDS011;59475;52.464;13.590;2023-08-06T06:11:56;9.87;;;6.30;;
71626;SDS011;59475;52.464;13.590;2023-08-06T06:14:21;7.38;;;6.50;;
71626;SDS011;59475;52.464;13.590;2023-08-06T06:16:47;7.53;;;5.83;;
71626;SDS011;59475;52.464;13.590;2023-08-06T06:19:12;7.17;;;6.43;;
71626;SDS011;59475;52.464;13.590;2023-08-06T06:21:38;8.77;;;6.03;;
71626;SDS011;59475;52.464;13.590;2023-08-06T06:24:04;7.82;;;6.03;;
71626;SDS011;59475;52.464;13.590;2023-08-06T06:26:30;7.30;;;5.95;;
71626;SDS011;59475;52.464;13.590;2023-08-06T06:28:56;9.48;;;6.00;;
71626;SDS011;59475;52.464;13.590;2023-08-06T06:31:22;7.97;;;6.37;;
71626;SDS011;59475;52.464;13.590;2023-08-06T06:33:48;7.75;;;6.28;;
71626;SDS011;59475;52.464;13.590;2023-08-06T06:36:13;8.07;;;6.70;;
71626;SDS011;59475;52.464;13.590;2023-08-06T06:38:38;8.37;;;7.10;;
71626;SDS011;59475;52.464;13.590;2023-08-06T06:41:04;9.10;;;7.13;;
71626;SDS011;59475;52.464;13.590;2023-08-06T06:43:30;11.27;;;6.83;;
71626;SDS011;59475;52.464;13.590;2023-08-06T06:45:56;10.02;;;7.93;;
71626;SDS011;59475;52.464;13.590;2023-08-06T06:48:28;8.27;;;6.93;;
71626;SDS011;59475;52.464;13.590;2023-08-06T06:50:55;9.70;;;7.10;;
71626;SDS011;59475;52.464;13.590;2023-08-06T06:53:21;8.18;;;6.82;;
71626;SDS011;59475;52.464;13.590;2023-08-06T06:55:52;9.57;;;7.50;;
71626;SDS011;59475;52.464;13.590;2023-08-06T06:58:17;7.63;;;6.43;;
71626;SDS011;59475;52.464;13.590;2023-08-06T07:00:43;7.80;;;6.70;;
71626;SDS011;59475;52.464;13.590;2023-08-06T07:03:08;9.13;;;6.80;;
71626;SDS011;59475;52.464;13.590;2023-08-06T07:05:33;9.23;;;8.00;;
71626;SDS011;59475;52.464;13.590;2023-08-06T07:11:21;8.38;;;7.53;;
71626;SDS011;59475;52.464;13.590;2023-08-06T07:17:08;8.77;;;7.53;;
71626;SDS011;59475;52.464;13.590;2023-08-06T07:22:55;8.93;;;7.82;;
71626;SDS011;59475;52.464;13.590;2023-08-06T07:25:20;9.47;;;7.80;;
71626;SDS011;59475;52.464;13.590;2023-08-06T07:27:46;9.57;;;7.50;;
71626;SDS011;59475;52.464;13.590;2023-08-06T07:33:33;8.53;;;6.57;;
71626;SDS011;59475;52.464;13.590;2023-08-06T07:35:58;8.05;;;7.25;;
71626;SDS011;59475;52.464;13.590;2023-08-06T07:38:23;8.63;;;7.73;;
71626;SDS011;59475;52.464;13.590;2023-08-06T07:40:49;10.17;;;8.40;;
71626;SDS011;59475;52.464;13.590;2023-08-06T07:43:14;8.73;;;7.83;;
71626;SDS011;59475;52.464;13.590;2023-08-06T07:49:01;9.00;;;7.63;;
71626;SDS011;59475;52.464;13.590;2023-08-06T07:51:27;9.45;;;7.70;;
71626;SDS011;59475;52.464;13.590;2023-08-06T07:53:53;9.10;;;8.13;;
71626;SDS011;59475;52.464;13.590;2023-08-06T07:56:18;9.63;;;8.43;;
71626;SDS011;59475;52.464;13.590;2023-08-06T07:58:44;9.50;;;8.17;;
71626;SDS011;59475;52.464;13.590;2023-08-06T08:01:09;9.90;;;8.90;;
71626;SDS011;59475;52.464;13.590;2023-08-06T08:03:34;11.27;;;9.20;;
71626;SDS011;59475;52.464;13.590;2023-08-06T08:06:00;9.95;;;8.27;;
71626;SDS011;59475;52.464;13.590;2023-08-06T08:08:25;9.43;;;8.43;;
71626;SDS011;59475;52.464;13.590;2023-08-06T08:14:12;9.98;;;8.35;;
71626;SDS011;59475;52.464;13.590;2023-08-06T08:19:59;10.38;;;8.57;;
71626;SDS011;59475;52.464;13.590;2023-08-06T08:22:25;9.30;;;8.33;;
71626;SDS011;59475;52.464;13.590;2023-08-06T08:24:51;10.03;;;8.63;;
71626;SDS011;59475;52.464;13.590;2023-08-06T08:27:16;9.73;;;8.73;;
71626;SDS011;59475;52.464;13.590;2023-08-06T08:29:41;10.53;;;8.50;;
71626;SDS011;59475;52.464;13.590;2023-08-06T08:32:06;10.30;;;9.20;;
71626;SDS011;59475;52.464;13.590;2023-08-06T08:34:32;10.27;;;8.87;;
71626;SDS011;59475;52.464;13.590;2023-08-06T08:40:19;9.48;;;8.45;;
71626;SDS011;59475;52.464;13.590;2023-08-06T08:42:48;12.07;;;9.82;;
71626;SDS011;59475;52.464;13.590;2023-08-06T08:45:14;11.63;;;9.73;;
71626;SDS011;59475;52.464;13.590;2023-08-06T08:47:40;12.13;;;9.43;;
71626;SDS011;59475;52.464;13.590;2023-08-06T08:50:07;11.50;;;9.32;;
71626;SDS011;59475;52.464;13.590;2023-08-06T08:55:55;10.50;;;8.88;;
71626;SDS011;59475;52.464;13.590;2023-08-06T08:58:20;12.13;;;9.60;;
71626;SDS011;59475;52.464;13.590;2023-08-06T09:00:46;10.10;;;9.00;;
71626;SDS011;59475;52.464;13.590;2023-08-06T09:06:37;10.95;;;9.82;;
71626;SDS011;59475;52.464;13.590;2023-08-06T09:09:12;11.13;;;9.93;;
71626;SDS011;59475;52.464;13.590;2023-08-06T09:15:02;10.83;;;9.27;;
71626;SDS011;59475;52.464;13.590;2023-08-06T09:20:50;12.85;;;9.68;;
71626;SDS011;59475;52.464;13.590;2023-08-06T09:23:15;10.87;;;9.00;;
71626;SDS011;59475;52.464;13.590;2023-08-06T09:25:40;10.60;;;9.40;;
71626;SDS011;59475;52.464;13.590;2023-08-06T09:28:06;11.63;;;10.15;;
71626;SDS011;59475;52.464;13.590;2023-08-06T09:30:38;12.30;;;9.80;;
71626;SDS011;59475;52.464;13.590;2023-08-06T09:33:04;12.65;;;9.80;;
71626;SDS011;59475;52.464;13.590;2023-08-06T09:35:35;12.18;;;10.13;;
71626;SDS011;59475;52.464;13.590;2023-08-06T09:38:09;11.67;;;9.83;;
71626;SDS011;59475;52.464;13.590;2023-08-06T09:40:36;11.07;;;8.90;;
71626;SDS011;59475;52.464;13.590;2023-08-06T09:43:02;11.63;;;9.68;;
71626;SDS011;59475;52.464;13.590;2023-08-06T09:45:35;12.03;;;9.63;;
71626;SDS011;59475;52.464;13.590;2023-08-06T09:48:05;10.70;;;9.00;;
71626;SDS011;59475;52.464;13.590;2023-08-06T09:50:32;10.30;;;9.15;;
71626;SDS011;59475;52.464;13.590;2023-08-06T09:53:01;10.77;;;8.50;;
71626;SDS011;59475;52.464;13.590;2023-08-06T09:55:28;10.38;;;8.75;;
71626;SDS011;59475;52.464;13.590;2023-08-06T09:57:53;8.83;;;7.93;;
71626;SDS011;59475;52.464;13.590;2023-08-06T10:00:19;10.52;;;7.88;;
71626;SDS011;59475;52.464;13.590;2023-08-06T10:02:45;4.60;;;4.20;;
71626;SDS011;59475;52.464;13.590;2023-08-06T10:05:11;5.82;;;5.32;;
71626;SDS011;59475;52.464;13.590;2023-08-06T10:07:37;5.70;;;5.10;;
71626;SDS011;59475;52.464;13.590;2023-08-06T10:13:27;6.78;;;5.07;;
71626;SDS011;59475;52.464;13.590;2023-08-06T10:15:53;5.50;;;4.83;;
71626;SDS011;59475;52.464;13.590;2023-08-06T10:21:40;5.38;;;4.53;;
71626;SDS011;59475;52.464;13.590;2023-08-06T10:24:08;5.70;;;5.10;;
71626;SDS011;59475;52.464;13.590;2023-08-06T10:26:39;5.53;;;5.03;;
71626;SDS011;59475;52.464;13.590;2023-08-06T10:29:34;5.03;;;4.43;;
71626;SDS011;59475;52.464;13.590;2023-08-06T10:32:02;5.70;;;4.57;;
71626;SDS011;59475;52.464;13.590;2023-08-06T10:37:36;5.47;;;4.70;;
71626;SDS011;59475;52.464;13.590;2023-08-06T10:40:02;5.13;;;4.55;;
71626;SDS011;59475;52.464;13.590;2023-08-06T10:42:28;6.15;;;5.55;;
71626;SDS011;59475;52.464;13.590;2023-08-06T10:48:27;7.15;;;5.93;;
71626;SDS011;59475;52.464;13.590;2023-08-06T10:50:56;6.83;;;5.90;;
71626;SDS011;59475;52.464;13.590;2023-08-06T10:53:22;7.47;;;6.68;;
71626;SDS011;59475;52.464;13.590;2023-08-06T10:55:50;7.70;;;6.90;;
71626;SDS011;59475;52.464;13.590;2023-08-06T11:01:37;7.10;;;5.43;;
71626;SDS011;59475;52.464;13.590;2023-08-06T11:04:04;8.13;;;6.63;;
71626;SDS011;59475;52.464;13.590;2023-08-06T11:06:30;4.57;;;4.07;;
71626;SDS011;59475;52.464;13.590;2023-08-06T11:08:55;6.25;;;5.65;;
71626;SDS011;59475;52.464;13.590;2023-08-06T11:11:22;6.07;;;4.73;;
71626;SDS011;59475;52.464;13.590;2023-08-06T11:17:10;6.75;;;5.40;;
71626;SDS011;59475;52.464;13.590;2023-08-06T11:22:57;5.97;;;5.05;;
71626;SDS011;59475;52.464;13.590;2023-08-06T11:25:22;6.53;;;5.70;;
71626;SDS011;59475;52.464;13.590;2023-08-06T11:27:48;6.33;;;5.73;;
71626;SDS011;59475;52.464;13.590;2023-08-06T11:30:14;5.63;;;5.03;;
71626;SDS011;59475;52.464;13.590;2023-08-06T11:32:46;6.27;;;5.27;;
71626;SDS011;59475;52.464;13.590;2023-08-06T11:35:12;5.93;;;5.25;;
71626;SDS011;59475;52.464;13.590;2023-08-06T11:37:38;5.80;;;5.30;;
71626;SDS011;59475;52.464;13.590;2023-08-06T11:40:08;5.45;;;4.80;;
71626;SDS011;59475;52.464;13.590;2023-08-06T11:45:57;6.20;;;5.60;;
71626;SDS011;59475;52.464;13.590;2023-08-06T11:48:23;5.78;;;5.10;;
71626;SDS011;59475;52.464;13.590;2023-08-06T11:50:49;6.60;;;5.28;;
71626;SDS011;59475;52.464;13.590;2023-08-06T11:53:19;6.25;;;5.65;;
71626;SDS011;59475;52.464;13.590;2023-08-06T11:55:45;7.20;;;5.60;;
71626;SDS011;59475;52.464;13.590;2023-08-06T12:01:33;5.70;;;5.10;;
71626;SDS011;59475;52.464;13.590;2023-08-06T12:03:59;7.60;;;5.63;;
71626;SDS011;59475;52.464;13.590;2023-08-06T12:09:46;8.40;;;5.53;;
71626;SDS011;59475;52.464;13.590;2023-08-06T12:12:12;7.30;;;6.60;;
71626;SDS011;59475;52.464;13.590;2023-08-06T12:14:37;8.60;;;6.43;;
71626;SDS011;59475;52.464;13.590;2023-08-06T12:17:02;9.63;;;6.03;;
71626;SDS011;59475;52.464;13.590;2023-08-06T12:19:28;9.07;;;6.97;;
71626;SDS011;59475;52.464;13.590;2023-08-06T12:21:55;8.00;;;6.13;;
71626;SDS011;59475;52.464;13.590;2023-08-06T12:24:20;7.67;;;6.20;;
71626;SDS011;59475;52.464;13.590;2023-08-06T12:26:46;10.90;;;6.80;;
71626;SDS011;59475;52.464;13.590;2023-08-06T12:29:11;6.93;;;6.23;;
71626;SDS011;59475;52.464;13.590;2023-08-06T12:34:58;7.43;;;6.00;;
71626;SDS011;59475;52.464;13.590;2023-08-06T12:37:25;5.95;;;5.35;;
71626;SDS011;59475;52.464;13.590;2023-08-06T12:39:50;8.10;;;6.43;;
71626;SDS011;59475;52.464;13.590;2023-08-06T12:42:16;9.35;;;7.13;;
71626;SDS011;59475;52.464;13.590;2023-08-06T12:44:41;7.60;;;6.53;;
71626;SDS011;59475;52.464;13.590;2023-08-06T12:47:07;6.53;;;5.90;;
71626;SDS011;59475;52.464;13.590;2023-08-06T12:49:32;6.85;;;5.72;;
71626;SDS011;59475;52.464;13.590;2023-08-06T12:51:58;6.50;;;5.53;;
71626;SDS011;59475;52.464;13.590;2023-08-06T12:54:25;6.72;;;5.53;;
71626;SDS011;59475;52.464;13.590;2023-08-06T12:56:50;7.78;;;5.55;;
71626;SDS011;59475;52.464;13.590;2023-08-06T12:59:16;6.37;;;5.63;;
71626;SDS011;59475;52.464;13.590;2023-08-06T13:01:42;6.28;;;5.68;;
71626;SDS011;59475;52.464;13.590;2023-08-06T13:04:08;6.78;;;6.03;;
71626;SDS011;59475;52.464;13.590;2023-08-06T13:09:56;7.28;;;5.88;;
71626;SDS011;59475;52.464;13.590;2023-08-06T13:12:21;7.20;;;6.30;;
71626;SDS011;59475;52.464;13.590;2023-08-06T13:14:48;7.25;;;6.45;;
71626;SDS011;59475;52.464;13.590;2023-08-06T13:20:37;7.83;;;6.27;;
71626;SDS011;59475;52.464;13.590;2023-08-06T13:23:05;8.93;;;7.07;;
71626;SDS011;59475;52.464;13.590;2023-08-06T13:25:30;9.43;;;7.40;;
71626;SDS011;59475;52.464;13.590;2023-08-06T13:27:59;7.80;;;6.88;;
71626;SDS011;59475;52.464;13.590;2023-08-06T13:30:24;7.13;;;6.43;;
71626;SDS011;59475;52.464;13.590;2023-08-06T13:32:50;7.03;;;6.15;;
71626;SDS011;59475;52.464;13.590;2023-08-06T13:35:15;7.50;;;6.43;;
71626;SDS011;59475;52.464;13.590;2023-08-06T13:37:40;7.97;;;6.70;;
71626;SDS011;59475;52.464;13.590;2023-08-06T13:40:06;7.43;;;6.17;;
71626;SDS011;59475;52.464;13.590;2023-08-06T13:42:33;7.32;;;6.20;;
71626;SDS011;59475;52.464;13.590;2023-08-06T13:48:20;8.90;;;6.85;;
71626;SDS011;59475;52.464;13.590;2023-08-06T13:50:46;8.73;;;6.63;;
71626;SDS011;59475;52.464;13.590;2023-08-06T13:53:11;6.57;;;5.13;;
71626;SDS011;59475;52.464;13.590;2023-08-06T13:55:36;8.30;;;6.27;;
71626;SDS011;59475;52.464;13.590;2023-08-06T13:58:02;8.83;;;6.33;;
71626;SDS011;59475;52.464;13.590;2023-08-06T14:00:27;8.83;;;6.90;;
71626;SDS011;59475;52.464;13.590;2023-08-06T14:02:53;9.23;;;7.18;;
71626;SDS011;59475;52.464;13.590;2023-08-06T14:05:18;8.40;;;7.00;;
71626;SDS011;59475;52.464;13.590;2023-08-06T14:07:43;8.73;;;7.00;;
71626;SDS011;59475;52.464;13.590;2023-08-06T14:10:09;8.60;;;7.57;;
71626;SDS011;59475;52.464;13.590;2023-08-06T14:15:56;8.73;;;6.70;;
71626;SDS011;59475;52.464;13.590;2023-08-06T14:21:43;10.70;;;6.50;;
71626;SDS011;59475;52.464;13.590;2023-08-06T14:24:09;6.47;;;5.57;;
71626;SDS011;59475;52.464;13.590;2023-08-06T14:26:34;6.83;;;4.70;;
71626;SDS011;59475;52.464;13.590;2023-08-06T14:29:00;7.27;;;4.87;;
71626;SDS011;59475;52.464;13.590;2023-08-06T14:31:26;7.65;;;5.00;;
71626;SDS011;59475;52.464;13.590;2023-08-06T14:33:52;7.00;;;5.07;;
71626;SDS011;59475;52.464;13.590;2023-08-06T14:36:17;5.90;;;5.00;;
71626;SDS011;59475;52.464;13.590;2023-08-06T14:38:42;5.63;;;5.03;;
71626;SDS011;59475;52.464;13.590;2023-08-06T14:41:08;5.40;;;4.57;;
71626;SDS011;59475;52.464;13.590;2023-08-06T14:43:33;5.50;;;4.23;;
71626;SDS011;59475;52.464;13.590;2023-08-06T14:45:59;5.73;;;4.20;;
71626;SDS011;59475;52.464;13.590;2023-08-06T14:48:24;4.73;;;4.23;;
71626;SDS011;59475;52.464;13.590;2023-08-06T14:50:49;4.07;;;3.67;;
71626;SDS011;59475;52.464;13.590;2023-08-06T14:53:15;4.67;;;3.40;;
71626;SDS011;59475;52.464;13.590;2023-08-06T14:55:40;6.40;;;3.50;;
71626;SDS011;59475;52.464;13.590;2023-08-06T15:01:29;5.97;;;3.78;;
71626;SDS011;59475;52.464;13.590;2023-08-06T15:03:55;4.03;;;3.60;;
71626;SDS011;59475;52.464;13.590;2023-08-06T15:06:20;4.90;;;3.70;;
71626;SDS011;59475;52.464;13.590;2023-08-06T15:08:45;5.82;;;3.95;;
71626;SDS011;59475;52.464;13.590;2023-08-06T15:11:12;5.00;;;3.70;;
71626;SDS011;59475;52.464;13.590;2023-08-06T15:13:38;5.40;;;3.17;;
71626;SDS011;59475;52.464;13.590;2023-08-06T15:16:03;4.67;;;3.70;;
71626;SDS011;59475;52.464;13.590;2023-08-06T15:18:29;5.20;;;3.47;;
71626;SDS011;59475;52.464;13.590;2023-08-06T15:20:54;6.70;;;3.73;;
71626;SDS011;59475;52.464;13.590;2023-08-06T15:23:20;5.93;;;3.80;;
71626;SDS011;59475;52.464;13.590;2023-08-06T15:25:45;5.03;;;3.20;;
71626;SDS011;59475;52.464;13.590;2023-08-06T15:28:10;4.73;;;4.03;;
71626;SDS011;59475;52.464;13.590;2023-08-06T15:30:36;9.57;;;4.57;;
71626;SDS011;59475;52.464;13.590;2023-08-06T15:36:23;6.80;;;4.47;;
71626;SDS011;59475;52.464;13.590;2023-08-06T15:42:11;5.78;;;3.33;;
71626;SDS011;59475;52.464;13.590;2023-08-06T15:47:58;5.28;;;3.50;;
71626;SDS011;59475;52.464;13.590;2023-08-06T15:50:23;5.23;;;3.17;;
71626;SDS011;59475;52.464;13.590;2023-08-06T15:52:49;3.53;;;3.07;;
71626;SDS011;59475;52.464;13.590;2023-08-06T15:55:15;5.93;;;3.50;;
71626;SDS011;59475;52.464;13.590;2023-08-06T16:01:02;4.47;;;3.00;;
71626;SDS011;59475;52.464;13.590;2023-08-06T16:03:27;6.60;;;3.30;;
71626;SDS011;59475;52.464;13.590;2023-08-06T16:09:15;4.15;;;3.20;;
71626;SDS011;59475;52.464;13.590;2023-08-06T16:15:02;5.80;;;3.30;;
71626;SDS011;59475;52.464;13.590;2023-08-06T16:17:28;5.83;;;3.30;;
71626;SDS011;59475;52.464;13.590;2023-08-06T16:19:53;4.85;;;3.50;;
71626;SDS011;59475;52.464;13.590;2023-08-06T16:25:40;4.65;;;2.85;;
71626;SDS011;59475;52.464;13.590;2023-08-06T16:28:10;4.13;;;2.57;;
71626;SDS011;59475;52.464;13.590;2023-08-06T16:30:42;3.80;;;2.53;;
71626;SDS011;59475;52.464;13.590;2023-08-06T16:33:10;3.80;;;2.58;;
71626;SDS011;59475;52.464;13.590;2023-08-06T16:38:56;6.75;;;2.65;;
71626;SDS011;59475;52.464;13.590;2023-08-06T16:41:22;4.00;;;3.30;;
71626;SDS011;59475;52.464;13.590;2023-08-06T16:43:48;4.85;;;2.80;;
71626;SDS011;59475;52.464;13.590;2023-08-06T16:46:13;4.27;;;2.53;;
71626;SDS011;59475;52.464;13.590;2023-08-06T16:48:38;4.73;;;3.03;;
71626;SDS011;59475;52.464;13.590;2023-08-06T16:51:04;3.40;;;2.70;;
71626;SDS011;59475;52.464;13.590;2023-08-06T16:56:52;4.07;;;2.78;;
71626;SDS011;59475;52.464;13.590;2023-08-06T16:59:17;5.13;;;3.00;;
71626;SDS011;59475;52.464;13.590;2023-08-06T17:01:42;3.90;;;2.42;;